Time;durP1;ratioP1;P1;durP2;ratioP2;P2;SDS_P1;SDS_P2;PMS_P1;PMS_P2;Temp;Humidity;BMP_temperature;BMP_pressure;BME280_temperature;BME280_humidity;BME280_pressure;Samples;Min_cycle;Max_cycle;Signal;HPM_P1;HPM_P2
2023/08/26 00:00:28;;;;;;;0.30;0.30;;;;;;;18.68;100.00;96426.53;29397;247;63008;-59
2023/08/26 00:01:00;;;;;;;0.30;0.30;;;;;;;18.68;100.00;96421.03;29397;199;63009;-59
2023/08/26 00:01:31;;;;;;;0.30;0.30;;;;;;;18.69;100.00;96433.63;29394;271;64004;-59
2023/08/26 00:02:03;;;;;;;0.30;0.30;;;;;;;18.69;100.00;96433.63;29394;229;64009;-60
2023/08/26 00:02:38;;;;;;;0.30;0.30;;;;;;;18.69;100.00;96439.13;29395;222;63004;-60
2023/08/26 00:03:10;;;;;;;0.30;0.30;;;;;;;18.69;100.00;96430.88;29395;202;63017;-59
2023/08/26 00:03:42;;;;;;;0.30;0.30;;;;;;;18.69;100.00;96422.62;29394;317;64004;-59
2023/08/26 00:04:13;;;;;;;0.30;0.30;;;;;;;18.69;100.00;96422.62;29395;210;63008;-60
2023/08/26 00:04:44;;;;;;;0.32;0.32;;;;;;;18.70;100.00;96424.22;29395;218;63005;-61
2023/08/26 00:05:17;;;;;;;0.30;0.30;;;;;;;18.72;100.00;96424.66;29395;220;63009;-60
2023/08/26 00:05:50;;;;;;;0.40;0.40;;;;;;;18.71;100.00;96428.53;29395;256;63005;-60
2023/08/26 00:06:22;;;;;;;0.32;0.32;;;;;;;18.71;100.00;96438.78;29395;204;63009;-59
2023/08/26 00:06:53;;;;;;;0.30;0.30;;;;;;;18.72;100.00;96448.59;29395;203;63005;-60
2023/08/26 00:07:24;;;;;;;0.30;0.30;;;;;;;18.74;100.00;96444.31;29395;224;63009;-59
2023/08/26 00:07:56;;;;;;;0.30;0.30;;;;;;;18.74;100.00;96441.56;29395;293;63004;-62
2023/08/26 00:08:27;;;;;;;0.30;0.30;;;;;;;18.80;100.00;96449.56;29395;218;63009;-58
2023/08/26 00:08:58;;;;;;;0.30;0.30;;;;;;;18.79;100.00;96436.97;29393;218;64004;-58
2023/08/26 00:09:30;;;;;;;0.30;0.30;;;;;;;18.79;100.00;96442.47;29395;207;63009;-60
2023/08/26 00:10:02;;;;;;;0.30;0.30;;;;;;;18.79;100.00;96431.47;29395;245;63004;-60
2023/08/26 00:10:33;;;;;;;0.35;0.35;;;;;;;18.78;100.00;96436.16;29393;259;64008;-59
2023/08/26 00:11:05;;;;;;;0.30;0.30;;;;;;;18.78;100.00;96425.19;29395;199;63004;-59
2023/08/26 00:11:36;;;;;;;0.30;0.30;;;;;;;18.77;100.00;96431.81;29395;182;63008;-58
2023/08/26 00:12:10;;;;;;;0.30;0.30;;;;;;;18.75;100.00;96423.12;29393;228;64005;-59
2023/08/26 00:12:41;;;;;;;0.30;0.30;;;;;;;18.75;100.00;96428.63;29395;225;63009;-59
2023/08/26 00:13:12;;;;;;;0.30;0.30;;;;;;;18.79;100.00;96431.47;29395;197;63009;-61
2023/08/26 00:13:43;;;;;;;0.40;0.40;;;;;;;18.83;100.00;96437.84;29395;216;63009;-60
2023/08/26 00:14:15;;;;;;;0.30;0.30;;;;;;;18.83;100.00;96435.91;29395;222;63005;-62
2023/08/26 00:14:46;;;;;;;0.40;0.40;;;;;;;18.84;100.00;96429.25;29395;218;63009;-63
2023/08/26 00:15:19;;;;;;;0.85;0.85;;;;;;;18.86;100.00;96424.19;29393;204;64004;-60
2023/08/26 00:15:50;;;;;;;0.30;0.30;;;;;;;18.84;100.00;96422.94;29394;265;64009;-65
2023/08/26 00:16:22;;;;;;;0.30;0.30;;;;;;;18.83;100.00;96418.59;29395;225;63004;-62
2023/08/26 00:16:54;;;;;;;0.30;0.30;;;;;;;18.82;100.00;96420.56;29395;224;63009;-61
2023/08/26 00:17:29;;;;;;;0.30;0.30;;;;;;;18.82;100.00;96425.25;29395;216;63009;-60
2023/08/26 00:18:00;;;;;;;0.30;0.30;;;;;;;18.80;100.00;96422.88;29395;232;63008;-61
2023/08/26 00:18:32;;;;;;;0.30;0.30;;;;;;;18.80;100.00;96430.31;29395;211;63005;-60
2023/08/26 00:19:03;;;;;;;0.30;0.30;;;;;;;18.78;100.00;96429.88;29395;282;63009;-62
2023/08/26 00:19:34;;;;;;;0.40;0.40;;;;;;;18.75;100.00;96437.69;29393;236;64005;-61
2023/08/26 00:20:08;;;;;;;0.30;0.30;;;;;;;18.74;100.00;96441.56;29394;330;63009;-61
2023/08/26 00:20:40;;;;;;;0.40;0.40;;;;;;;18.74;100.00;96429.78;29395;228;63017;-60
2023/08/26 00:21:12;;;;;;;0.30;0.30;;;;;;;18.71;100.00;96436.78;29395;197;63022;-62
2023/08/26 00:21:45;;;;;;;0.30;0.30;;;;;;;18.69;100.00;96419.88;29395;345;63005;-62
2023/08/26 00:22:20;;;;;;;0.30;0.30;;;;;;;18.68;100.00;96421.03;29395;225;63009;-61
2023/08/26 00:22:53;;;;;;;0.37;0.37;;;;;;;18.67;100.00;96413.94;29395;205;63004;-61
2023/08/26 00:23:24;;;;;;;0.30;0.30;;;;;;;18.65;100.00;96418.22;29395;265;63009;-62
2023/08/26 00:23:58;;;;;;;0.40;0.40;;;;;;;18.65;100.00;96409.97;29395;222;63004;-64
2023/08/26 00:24:33;;;;;;;0.30;0.30;;;;;;;18.61;100.00;96400.84;29393;212;64009;-62
2023/08/26 00:25:06;;;;;;;0.32;0.32;;;;;;;18.61;100.00;96412.63;29395;223;63004;-59
2023/08/26 00:25:37;;;;;;;0.30;0.30;;;;;;;18.75;100.00;96407.44;29394;226;64008;-67
2023/08/26 00:26:11;;;;;;;0.37;0.37;;;;;;;18.75;100.00;96418.44;29395;216;63005;-67
2023/08/26 00:26:43;;;;;;;0.30;0.30;;;;;;;18.75;100.00;96410.19;29395;209;63009;-66
2023/08/26 00:27:14;;;;;;;0.75;0.75;;;;;;;18.71;100.00;96423.06;29395;228;63005;-66
2023/08/26 00:27:46;;;;;;;0.30;0.30;;;;;;;18.68;100.00;96412.81;29393;198;64009;-68
2023/08/26 00:28:17;;;;;;;0.30;0.30;;;;;;;18.63;100.00;96428.75;29395;199;63005;-67
2023/08/26 00:28:48;;;;;;;0.40;0.40;;;;;;;18.62;100.00;96438.94;29395;210;63009;-67
2023/08/26 00:29:19;;;;;;;0.30;0.30;;;;;;;18.61;100.00;96431.84;29393;196;64005;-66
2023/08/26 00:29:51;;;;;;;0.40;0.40;;;;;;;18.59;100.00;96425.87;29393;202;64009;-67
2023/08/26 00:30:22;;;;;;;0.30;0.30;;;;;;;18.60;100.00;96419.28;29395;258;63004;-66
2023/08/26 00:30:58;;;;;;;0.40;0.40;;;;;;;18.61;100.00;96418.13;29395;244;63009;-66
2023/08/26 00:31:29;;;;;;;0.35;0.35;;;;;;;18.63;100.00;96415.81;29395;224;63004;-65
2023/08/26 00:32:00;;;;;;;0.40;0.40;;;;;;;18.61;100.00;96420.88;29395;227;63024;-65
2023/08/26 00:32:32;;;;;;;0.30;0.30;;;;;;;18.59;100.00;96425.87;29395;226;63004;-67
2023/08/26 00:33:04;;;;;;;0.37;0.37;;;;;;;18.60;100.00;96424.78;29395;204;63008;-69
2023/08/26 00:33:35;;;;;;;0.30;0.30;;;;;;;18.61;100.00;96420.88;29395;272;63005;-65
2023/08/26 00:34:07;;;;;;;0.40;0.40;;;;;;;18.59;100.00;96417.66;29395;293;63009;-66
2023/08/26 00:34:38;;;;;;;0.40;0.40;;;;;;;18.57;100.00;96419.94;29393;216;64005;-66
2023/08/26 00:35:11;;;;;;;0.30;0.30;;;;;;;18.57;100.00;96419.16;29395;252;63005;-66
2023/08/26 00:35:42;;;;;;;0.32;0.32;;;;;;;18.58;100.00;96413.31;29395;244;63005;-68
2023/08/26 00:36:13;;;;;;;0.32;0.32;;;;;;;18.58;100.00;96409.75;29394;249;64009;-68
2023/08/26 00:36:45;;;;;;;0.35;0.35;;;;;;;18.56;100.00;96412.84;29395;212;63005;-67
2023/08/26 00:37:16;;;;;;;0.40;0.40;;;;;;;18.54;100.00;96406.91;29395;204;63009;-68
2023/08/26 00:37:48;;;;;;;0.40;0.40;;;;;;;18.55;100.00;96411.25;29395;234;63004;-68
2023/08/26 00:38:20;;;;;;;2.95;2.85;;;;;;;18.54;100.00;96408.88;29394;232;64009;-69
2023/08/26 00:38:51;;;;;;;0.30;0.30;;;;;;;18.54;100.00;96415.16;29395;247;63004;-69
2023/08/26 00:39:22;;;;;;;0.45;0.45;;;;;;;18.55;100.00;96414.00;29395;266;63018;-69
2023/08/26 00:39:54;;;;;;;0.40;0.40;;;;;;;18.58;100.00;96410.56;29395;313;63004;-71
2023/08/26 00:40:26;;;;;;;0.40;0.40;;;;;;;18.58;100.00;96407.00;29395;292;63008;-69
2023/08/26 00:40:57;;;;;;;0.40;0.40;;;;;;;18.59;100.00;96405.84;29395;202;63000;-69
2023/08/26 00:41:32;;;;;;;0.30;0.30;;;;;;;18.56;100.00;96401.88;29395;221;63009;-70
2023/08/26 00:42:04;;;;;;;0.40;0.40;;;;;;;18.54;100.00;96406.91;29395;214;63005;-71
2023/08/26 00:42:36;;;;;;;0.40;0.40;;;;;;;18.50;100.00;96403.28;29395;221;63009;-71
2023/08/26 00:43:08;;;;;;;0.30;0.30;;;;;;;18.48;100.00;96407.53;29394;206;64005;-70
2023/08/26 00:43:40;;;;;;;0.30;0.30;;;;;;;18.46;100.00;96401.59;29395;286;63009;-68
2023/08/26 00:44:11;;;;;;;0.40;0.40;;;;;;;18.43;100.00;96403.91;29395;279;63007;-71
2023/08/26 00:44:43;;;;;;;0.30;0.30;;;;;;;18.40;100.00;96404.63;29395;280;63013;-71
2023/08/26 00:45:16;;;;;;;0.30;0.30;;;;;;;18.41;100.00;96402.66;29395;252;63018;-70
2023/08/26 00:45:51;;;;;;;0.40;0.40;;;;;;;18.39;100.00;96403.00;29395;218;63009;-70
2023/08/26 00:46:23;;;;;;;0.30;0.30;;;;;;;18.38;100.00;96395.13;29395;291;63004;-71
2023/08/26 00:46:59;;;;;;;0.40;0.40;;;;;;;18.39;100.00;96397.53;29395;202;63027;-73
2023/08/26 00:47:31;;;;;;;0.40;0.40;;;;;;;18.38;100.00;96397.88;29395;197;63004;-71
2023/08/26 00:48:03;;;;;;;0.35;0.35;;;;;;;18.36;100.00;96402.97;29395;219;63008;-70
2023/08/26 00:48:35;;;;;;;0.30;0.30;;;;;;;18.35;100.00;96399.41;29394;205;64004;-73
2023/08/26 00:49:07;;;;;;;0.30;0.30;;;;;;;18.38;100.00;96395.13;29395;222;63009;-71
2023/08/26 00:49:39;;;;;;;0.40;0.40;;;;;;;18.41;100.00;96388.94;29395;227;63005;-73
2023/08/26 00:50:10;;;;;;;0.37;0.37;;;;;;;18.41;100.00;96394.44;29395;216;63009;-71
2023/08/26 00:50:47;;;;;;;0.40;0.40;;;;;;;18.40;100.00;96392.81;29395;334;63005;-70
2023/08/26 00:51:19;;;;;;;0.40;0.40;;;;;;;18.38;100.00;96389.63;29395;275;63009;-70
2023/08/26 00:51:50;;;;;;;0.40;0.40;;;;;;;18.36;100.00;96401.00;29395;208;63005;-70
2023/08/26 00:52:23;;;;;;;0.40;0.40;;;;;;;18.36;100.00;96397.47;29395;220;63009;-70
2023/08/26 00:52:55;;;;;;;0.40;0.40;;;;;;;18.33;100.00;96404.47;29395;282;63004;-72
2023/08/26 00:53:27;;;;;;;0.30;0.30;;;;;;;18.31;100.00;96406.75;29394;212;64009;-71
2023/08/26 00:53:59;;;;;;;0.30;0.30;;;;;;;18.31;100.00;96411.47;29395;215;63000;-70
2023/08/26 00:54:35;;;;;;;0.35;0.35;;;;;;;18.29;100.00;96425.53;29395;321;63009;-69
2023/08/26 00:55:10;;;;;;;0.32;0.32;;;;;;;18.29;100.00;96414.56;29395;223;63004;-67
2023/08/26 00:55:43;;;;;;;0.60;0.60;;;;;;;18.30;100.00;96431.84;29395;205;63008;-69
2023/08/26 00:56:15;;;;;;;0.35;0.35;;;;;;;18.29;100.00;96424.75;29395;196;63010;-68
2023/08/26 00:56:46;;;;;;;0.40;0.40;;;;;;;18.29;100.00;96441.22;29395;219;63009;-71
2023/08/26 00:57:18;;;;;;;0.40;0.40;;;;;;;18.28;100.00;96434.13;29395;197;63005;-68
2023/08/26 00:57:51;;;;;;;0.40;0.40;;;;;;;18.29;100.00;96432.97;29395;263;63009;-70
2023/08/26 00:58:23;;;;;;;0.30;0.30;;;;;;;18.28;100.00;96429.44;29395;282;63005;-70
2023/08/26 00:58:55;;;;;;;0.30;0.30;;;;;;;18.29;100.00;96424.75;29394;246;64009;-71
2023/08/26 00:59:27;;;;;;;0.40;0.40;;;;;;;18.27;100.00;96421.56;29395;216;63005;-72
2023/08/26 00:59:58;;;;;;;0.40;0.40;;;;;;;18.25;100.00;96418.34;29395;244;63009;-69
2023/08/26 01:00:30;;;;;;;0.40;0.40;;;;;;;18.26;100.00;96429.00;29395;202;63004;-67
2023/08/26 01:01:02;;;;;;;0.40;0.40;;;;;;;18.25;100.00;96432.88;29395;229;63004;-71
2023/08/26 01:01:35;;;;;;;0.35;0.35;;;;;;;18.26;100.00;96430.94;29395;197;63004;-69
2023/08/26 01:02:08;;;;;;;0.40;0.40;;;;;;;18.24;100.00;96428.53;29395;322;63008;-67
2023/08/26 01:02:43;;;;;;;0.40;0.40;;;;;;;18.25;100.00;96440.31;29395;210;63004;-70
2023/08/26 01:03:14;;;;;;;0.30;0.30;;;;;;;18.25;100.00;96445.81;29394;218;63998;-69
2023/08/26 01:03:46;;;;;;;0.30;0.30;;;;;;;18.22;100.00;96447.31;29395;235;63004;-67
2023/08/26 01:04:18;;;;;;;0.30;0.30;;;;;;;18.26;100.00;96455.66;29395;234;63009;-57
2023/08/26 01:04:50;;;;;;;0.40;0.40;;;;;;;18.30;100.00;96462.03;29394;233;64005;-67
2023/08/26 01:05:23;;;;;;;0.40;0.40;;;;;;;18.31;100.00;96456.19;29394;210;64009;-70
2023/08/26 01:05:54;;;;;;;0.40;0.40;;;;;;;18.31;100.00;96460.91;29395;238;63005;-67
2023/08/26 01:06:26;;;;;;;0.30;0.30;;;;;;;18.34;100.00;96460.19;29395;249;63014;-66
2023/08/26 01:06:58;;;;;;;0.30;0.30;;;;;;;18.35;100.00;96456.28;29395;222;63011;-67
2023/08/26 01:07:30;;;;;;;0.30;0.30;;;;;;;18.34;100.00;96449.19;29395;214;63015;-65
2023/08/26 01:08:04;;;;;;;0.37;0.37;;;;;;;18.37;100.00;96451.22;29394;210;64004;-67
2023/08/26 01:08:37;;;;;;;0.30;0.30;;;;;;;18.37;100.00;96459.47;29395;196;63009;-67
2023/08/26 01:09:09;;;;;;;0.30;0.30;;;;;;;18.35;100.00;96467.28;29395;235;63010;-66
2023/08/26 01:09:40;;;;;;;0.30;0.30;;;;;;;18.34;100.00;96465.69;29395;205;63008;-68
2023/08/26 01:10:12;;;;;;;0.40;0.40;;;;;;;18.33;100.00;96469.56;29395;273;63004;-69
2023/08/26 01:11:03;;;;;;;0.37;0.37;;;;;;;18.31;100.00;96464.44;29395;197;63009;-68
2023/08/26 01:12:11;;;;;;;0.40;0.40;;;;;;;18.30;100.00;96464.78;29394;280;64005;-65
2023/08/26 01:13:11;;;;;;;0.40;0.40;;;;;;;18.28;100.00;96461.59;29394;210;64009;-69
2023/08/26 01:14:27;;;;;;;0.40;0.40;;;;;;;18.29;100.00;96457.69;29394;216;64005;-69
2023/08/26 01:15:08;;;;;;;0.40;0.40;;;;;;;18.27;100.00;96452.56;29395;310;63004;-69
2023/08/26 01:15:46;;;;;;;0.40;0.40;;;;;;;18.28;100.00;96450.59;29417;202;63009;-69
2023/08/26 01:16:20;;;;;;;0.40;0.40;;;;;;;18.28;100.00;96445.91;29395;299;63004;-71
2023/08/26 01:16:55;;;;;;;0.35;0.35;;;;;;;18.28;100.00;96445.12;29394;215;64009;-70
2023/08/26 01:17:27;;;;;;;0.30;0.30;;;;;;;18.26;100.00;96448.22;29395;219;63004;-70
2023/08/26 01:18:05;;;;;;;0.30;0.30;;;;;;;18.25;100.00;96454.84;29395;290;63008;-69
2023/08/26 01:18:38;;;;;;;0.40;0.40;;;;;;;18.23;100.00;96456.34;29395;219;63005;-69
2023/08/26 01:19:21;;;;;;;0.30;0.30;;;;;;;18.22;100.00;96463.00;29395;232;63009;-62
2023/08/26 01:19:55;;;;;;;0.40;0.40;;;;;;;18.22;100.00;96476.72;29395;234;63005;-68
2023/08/26 01:20:27;;;;;;;0.40;0.40;;;;;;;18.22;100.00;96482.22;29395;247;63012;-68
2023/08/26 01:20:59;;;;;;;0.30;0.30;;;;;;;18.20;100.00;96490.00;29395;282;63005;-68
2023/08/26 01:21:37;;;;;;;0.30;0.30;;;;;;;18.20;100.00;96495.50;29395;231;63017;-67
2023/08/26 01:22:09;;;;;;;0.30;0.30;;;;;;;18.19;100.00;96507.63;29394;222;64005;-65
2023/08/26 01:22:42;;;;;;;0.30;0.30;;;;;;;18.18;100.00;96508.78;29395;218;63009;-69
2023/08/26 01:23:30;;;;;;;0.35;0.35;;;;;;;18.16;100.00;96508.34;29395;219;63004;-63
2023/08/26 01:24:05;;;;;;;0.40;0.40;;;;;;;18.17;100.00;96515.44;29395;218;63009;-65
2023/08/26 01:24:40;;;;;;;0.40;0.40;;;;;;;18.17;100.00;96524.47;29395;291;63004;-62
2023/08/26 01:25:12;;;;;;;0.37;0.37;;;;;;;18.17;100.00;96538.19;29395;287;63008;-56
2023/08/26 01:25:44;;;;;;;0.30;0.30;;;;;;;18.14;100.00;96538.88;29395;206;63005;-59
2023/08/26 01:26:15;;;;;;;0.40;0.40;;;;;;;18.07;100.00;96534.00;29395;238;63009;-55
2023/08/26 01:26:47;;;;;;;0.40;0.40;;;;;;;18.02;100.00;96528.75;29394;199;64005;-60
2023/08/26 01:27:18;;;;;;;0.82;0.82;;;;;;;17.92;100.00;96522.97;29394;222;64009;-61
2023/08/26 01:27:49;;;;;;;0.35;0.35;;;;;;;17.77;100.00;96519.00;29395;267;63005;-60
2023/08/26 01:28:22;;;;;;;0.40;0.40;;;;;;;17.67;100.00;96508.56;29395;222;63009;-62
2023/08/26 01:28:53;;;;;;;0.40;0.40;;;;;;;17.57;100.00;96500.78;29395;210;63005;-63
2023/08/26 01:29:25;;;;;;;0.40;0.40;;;;;;;17.51;100.00;96496.66;29395;260;63009;-58
2023/08/26 01:29:57;;;;;;;0.37;0.37;;;;;;;17.48;100.00;96500.09;29395;237;63004;-65
2023/08/26 01:30:29;;;;;;;0.40;0.40;;;;;;;17.45;100.00;96495.31;29395;238;63009;-61
2023/08/26 01:31:09;;;;;;;0.40;0.40;;;;;;;17.39;100.00;96497.47;29395;263;63004;-61
2023/08/26 01:31:43;;;;;;;0.40;0.40;;;;;;;17.34;100.00;96495.78;29417;202;63009;-63
2023/08/26 01:32:46;;;;;;;0.40;0.40;;;;;;;17.33;100.00;96505.16;29395;274;63004;-66
2023/08/26 01:33:25;;;;;;;0.40;0.40;;;;;;;17.33;100.00;96515.31;29394;197;64009;-68
2023/08/26 01:34:10;;;;;;;0.40;0.40;;;;;;;17.35;100.00;96505.59;29395;274;63005;-65
2023/08/26 01:34:46;;;;;;;0.40;0.40;;;;;;;17.35;100.00;96508.34;29395;201;63009;-66
2023/08/26 01:35:28;;;;;;;0.40;0.40;;;;;;;17.34;100.00;96501.25;29395;345;63005;-69
2023/08/26 01:36:03;;;;;;;0.40;0.40;;;;;;;17.33;100.00;96499.66;29395;239;63009;-66
2023/08/26 01:36:42;;;;;;;0.40;0.40;;;;;;;17.37;100.00;96499.78;29395;258;63005;-64
2023/08/26 01:37:17;;;;;;;0.40;0.40;;;;;;;17.35;100.00;96497.38;29395;238;63009;-66
2023/08/26 01:37:49;;;;;;;0.40;0.40;;;;;;;17.39;100.00;96492.00;29395;225;63004;-70
2023/08/26 01:38:22;;;;;;;0.40;0.40;;;;;;;17.41;100.00;96495.19;29394;203;64009;-61
2023/08/26 01:38:57;;;;;;;0.40;0.40;;;;;;;17.46;100.00;96496.91;29395;291;63004;-61
2023/08/26 01:39:29;;;;;;;0.40;0.40;;;;;;;17.60;100.00;96500.06;29395;354;63026;-72
2023/08/26 01:40:06;;;;;;;0.40;0.40;;;;;;;17.72;100.00;96491.81;29395;212;63004;-63
2023/08/26 01:40:41;;;;;;;0.40;0.40;;;;;;;17.77;100.00;96496.25;29395;233;63008;-63
2023/08/26 01:41:18;;;;;;;0.40;0.40;;;;;;;17.79;100.00;96489.28;29395;197;63009;-66
2023/08/26 01:41:50;;;;;;;0.40;0.40;;;;;;;17.57;100.00;96489.78;29395;238;63009;-65
2023/08/26 01:42:24;;;;;;;0.30;0.30;;;;;;;17.52;100.00;96487.28;29395;230;63005;-71
2023/08/26 01:42:57;;;;;;;0.40;0.40;;;;;;;17.51;100.00;96483.75;29395;294;63009;-64
2023/08/26 01:43:32;;;;;;;0.40;0.40;;;;;;;17.50;100.00;96486.84;29394;202;64005;-65
2023/08/26 01:44:05;;;;;;;0.40;0.40;;;;;;;17.49;100.00;96493.47;29395;207;63009;-65
2023/08/26 01:44:37;;;;;;;0.40;0.40;;;;;;;17.49;100.00;96490.72;29394;240;64015;-66
2023/08/26 01:45:11;;;;;;;0.40;0.40;;;;;;;17.63;100.00;96486.47;29395;267;63009;-63
2023/08/26 01:45:43;;;;;;;0.40;0.40;;;;;;;17.51;100.00;96488.44;29395;296;63004;-62
2023/08/26 01:46:17;;;;;;;0.37;0.37;;;;;;;17.45;100.00;96487.06;29395;211;63009;-63
2023/08/26 01:46:48;;;;;;;0.40;0.40;;;;;;;17.48;100.00;96489.13;29395;451;63004;-65
2023/08/26 01:47:19;;;;;;;0.40;0.40;;;;;;;17.52;100.00;96479.06;29394;202;64009;-66
2023/08/26 01:47:50;;;;;;;0.40;0.40;;;;;;;17.57;100.00;96487.06;29395;266;63004;-65
2023/08/26 01:48:22;;;;;;;0.40;0.40;;;;;;;17.55;100.00;96472.87;29395;216;63009;-64
2023/08/26 01:48:53;;;;;;;0.40;0.40;;;;;;;17.54;100.00;96476.78;29394;225;64005;-63
2023/08/26 01:49:24;;;;;;;0.40;0.40;;;;;;;17.51;100.00;96471.97;29395;247;63009;-71
2023/08/26 01:49:56;;;;;;;0.40;0.40;;;;;;;17.47;100.00;96466.38;29395;205;63005;-64
2023/08/26 01:50:28;;;;;;;0.40;0.40;;;;;;;17.48;100.00;96469.94;29394;288;64009;-65
2023/08/26 01:50:59;;;;;;;0.40;0.40;;;;;;;17.47;100.00;96471.06;29395;249;63005;-63
2023/08/26 01:51:33;;;;;;;0.40;0.40;;;;;;;17.46;100.00;96470.28;29395;237;63009;-65
2023/08/26 01:52:07;;;;;;;0.40;0.40;;;;;;;17.46;100.00;96477.69;29395;278;63009;-63
2023/08/26 01:52:40;;;;;;;0.40;0.40;;;;;;;17.46;100.00;96480.44;29395;266;63009;-65
2023/08/26 01:53:15;;;;;;;0.32;0.32;;;;;;;17.46;100.00;96474.97;29395;286;63006;-64
2023/08/26 01:53:46;;;;;;;0.40;0.40;;;;;;;17.48;100.00;96480.91;29395;285;63009;-65
2023/08/26 01:54:17;;;;;;;0.30;0.30;;;;;;;17.47;100.00;96480.09;29394;302;64004;-63
2023/08/26 01:54:49;;;;;;;0.35;0.35;;;;;;;17.47;100.00;96474.59;29395;242;63009;-63
2023/08/26 01:55:22;;;;;;;0.50;0.50;;;;;;;17.47;100.00;96471.87;29395;278;63004;-65
2023/08/26 01:55:53;;;;;;;0.30;0.30;;;;;;;17.47;100.00;96473.81;29395;284;63009;-63
2023/08/26 01:56:25;;;;;;;0.40;0.40;;;;;;;17.48;100.00;96472.66;29395;308;63005;-63
2023/08/26 01:56:56;;;;;;;0.40;0.40;;;;;;;17.48;100.00;96473.47;29395;240;63009;-63
2023/08/26 01:57:27;;;;;;;0.40;0.40;;;;;;;17.49;100.00;96475.06;29395;241;63005;-63
2023/08/26 01:57:59;;;;;;;0.40;0.40;;;;;;;17.50;100.00;96479.41;29395;297;63026;-64
2023/08/26 01:58:30;;;;;;;0.40;0.40;;;;;;;17.51;100.00;96481.00;29395;219;63005;-66
2023/08/26 01:59:02;;;;;;;0.40;0.40;;;;;;;17.53;100.00;96480.66;29395;202;63009;-64
2023/08/26 01:59:38;;;;;;;0.40;0.40;;;;;;;17.54;100.00;96493.22;29394;311;64005;-65
2023/08/26 02:00:10;;;;;;;0.40;0.40;;;;;;;17.54;100.00;96482.25;29395;226;63009;-64
2023/08/26 02:00:41;;;;;;;0.40;0.40;;;;;;;17.54;100.00;96488.53;29395;215;63004;-63
2023/08/26 02:01:13;;;;;;;0.30;0.30;;;;;;;17.53;100.00;96497.13;29395;260;63009;-63
2023/08/26 02:01:44;;;;;;;0.30;0.30;;;;;;;17.53;100.00;96489.69;29395;202;63004;-63
2023/08/26 02:02:15;;;;;;;0.30;0.30;;;;;;;17.53;100.00;96491.62;29395;226;63009;-63
2023/08/26 02:02:46;;;;;;;0.30;0.30;;;;;;;17.53;100.00;96494.37;29395;264;63004;-63
2023/08/26 02:03:17;;;;;;;0.30;0.30;;;;;;;17.52;100.00;96496.31;29395;224;63019;-63
2023/08/26 02:03:49;;;;;;;0.32;0.32;;;;;;;17.53;100.00;96494.37;29395;224;63005;-62
2023/08/26 02:04:23;;;;;;;0.40;0.40;;;;;;;17.53;100.00;96497.13;29395;243;63009;-63
2023/08/26 02:04:54;;;;;;;0.37;0.37;;;;;;;17.53;100.00;96500.66;29394;299;64005;-65
2023/08/26 02:05:25;;;;;;;0.30;0.30;;;;;;;17.54;100.00;96498.72;29395;284;63009;-63
2023/08/26 02:06:00;;;;;;;0.30;0.30;;;;;;;17.55;100.00;96497.56;29395;284;63005;-63
2023/08/26 02:06:31;;;;;;;0.65;0.65;;;;;;;17.55;100.00;96494.81;29395;320;63009;-63
2023/08/26 02:07:06;;;;;;;0.30;0.30;;;;;;;17.55;100.00;96497.56;29395;224;63004;-63
2023/08/26 02:07:37;;;;;;;0.40;0.40;;;;;;;17.56;100.00;96493.69;29394;202;64009;-61
2023/08/26 02:08:09;;;;;;;0.30;0.30;;;;;;;17.55;100.00;96489.34;29395;311;63004;-62
2023/08/26 02:08:40;;;;;;;0.30;0.30;;;;;;;17.56;100.00;96496.44;29395;322;63009;-63
2023/08/26 02:09:12;;;;;;;0.40;0.40;;;;;;;17.55;100.00;96492.88;29395;233;63004;-63
2023/08/26 02:09:43;;;;;;;0.30;0.30;;;;;;;17.55;100.00;96490.13;29395;196;63008;-62
2023/08/26 02:10:17;;;;;;;0.30;0.30;;;;;;;17.55;100.00;96487.41;29394;206;64005;-62
2023/08/26 02:10:55;;;;;;;0.30;0.30;;;;;;;17.55;100.00;96489.34;29395;208;63009;-62
2023/08/26 02:11:29;;;;;;;0.30;0.30;;;;;;;17.54;100.00;96487.75;29395;209;63005;-62
2023/08/26 02:12:00;;;;;;;0.30;0.30;;;;;;;17.53;100.00;96480.66;29395;302;63009;-62
2023/08/26 02:12:32;;;;;;;0.30;0.30;;;;;;;17.52;100.00;96485.34;29395;308;63005;-63
2023/08/26 02:13:05;;;;;;;0.30;0.30;;;;;;;17.53;100.00;96486.16;29395;215;63020;-62
2023/08/26 02:13:36;;;;;;;0.37;0.37;;;;;;;17.51;100.00;96482.94;29395;207;63005;-63
2023/08/26 02:14:07;;;;;;;0.35;0.35;;;;;;;17.49;100.00;96485.25;29395;209;63009;-62
2023/08/26 02:14:39;;;;;;;0.40;0.40;;;;;;;17.49;100.00;96487.97;29395;234;63004;-62
2023/08/26 02:15:10;;;;;;;0.30;0.30;;;;;;;17.49;100.00;96490.72;29395;220;63015;-62
2023/08/26 02:15:42;;;;;;;0.40;0.40;;;;;;;17.47;100.00;96488.31;29394;273;64004;-63
2023/08/26 02:16:13;;;;;;;0.40;0.40;;;;;;;17.46;100.00;96491.41;29395;233;63009;-62
2023/08/26 02:16:44;;;;;;;0.40;0.40;;;;;;;17.46;100.00;96486.72;29395;280;63004;-65
2023/08/26 02:17:16;;;;;;;0.40;0.40;;;;;;;17.47;100.00;96487.53;29395;283;63008;-63
2023/08/26 02:17:47;;;;;;;0.40;0.40;;;;;;;17.47;100.00;96487.53;29395;203;63005;-63
2023/08/26 02:18:18;;;;;;;0.37;0.37;;;;;;;17.48;100.00;96494.63;29395;203;63009;-62
2023/08/26 02:18:53;;;;;;;0.40;0.40;;;;;;;17.46;100.00;96497.69;29395;276;63005;-64
2023/08/26 02:19:24;;;;;;;0.40;0.40;;;;;;;17.45;100.00;96496.09;29395;257;63009;-62
2023/08/26 02:19:55;;;;;;;0.30;0.30;;;;;;;17.45;100.00;96498.03;29395;208;63005;-63
2023/08/26 02:20:26;;;;;;;0.40;0.40;;;;;;;17.45;100.00;96498.03;29395;213;63009;-62
2023/08/26 02:20:58;;;;;;;0.40;0.40;;;;;;;17.45;100.00;96495.31;29394;274;64005;-63
2023/08/26 02:21:29;;;;;;;0.40;0.40;;;;;;;17.46;100.00;96496.91;29395;223;63009;-63
2023/08/26 02:22:01;;;;;;;0.40;0.40;;;;;;;17.47;100.00;96493.00;29395;240;63004;-63
2023/08/26 02:22:32;;;;;;;0.40;0.40;;;;;;;17.49;100.00;96498.94;29395;199;63009;-64
2023/08/26 02:23:04;;;;;;;0.30;0.30;;;;;;;17.50;100.00;96503.28;29395;274;63004;-63
2023/08/26 02:23:35;;;;;;;0.30;0.30;;;;;;;17.50;100.00;96497.81;29395;281;63009;-63
2023/08/26 02:24:08;;;;;;;0.40;0.40;;;;;;;17.51;100.00;96500.19;29395;222;63004;-64
2023/08/26 02:24:43;;;;;;;0.30;0.30;;;;;;;17.52;100.00;96501.81;29395;198;63008;-62
2023/08/26 02:25:14;;;;;;;0.30;0.30;;;;;;;17.52;100.00;96495.53;29395;210;63005;-63
2023/08/26 02:25:46;;;;;;;0.40;0.40;;;;;;;17.51;100.00;96499.41;29395;222;63009;-63
2023/08/26 02:26:17;;;;;;;0.30;0.30;;;;;;;17.52;100.00;96492.78;29394;251;64005;-62
2023/08/26 02:26:49;;;;;;;0.40;0.40;;;;;;;17.52;100.00;96495.53;29395;251;63009;-62
2023/08/26 02:27:21;;;;;;;0.40;0.40;;;;;;;17.53;100.00;96497.91;29395;211;63005;-64
2023/08/26 02:27:56;;;;;;;0.30;0.30;;;;;;;17.53;100.00;96502.59;29395;208;63009;-63
2023/08/26 02:28:27;;;;;;;0.30;0.30;;;;;;;17.54;100.00;96498.72;29395;256;63008;-62
2023/08/26 02:28:59;;;;;;;0.40;0.40;;;;;;;17.52;100.00;96503.75;29395;277;63009;-64
2023/08/26 02:29:31;;;;;;;0.30;0.30;;;;;;;17.53;100.00;96508.09;29395;290;63004;-65
2023/08/26 02:30:02;;;;;;;0.30;0.30;;;;;;;17.53;100.00;96502.59;29395;295;63009;-62
2023/08/26 02:30:34;;;;;;;0.40;0.40;;;;;;;17.53;100.00;96510.84;29395;232;63004;-63
2023/08/26 02:31:06;;;;;;;0.40;0.40;;;;;;;17.52;100.00;96512.78;29395;298;63009;-65
2023/08/26 02:31:38;;;;;;;0.40;0.40;;;;;;;17.53;100.00;96513.56;29394;260;64004;-62
2023/08/26 02:32:13;;;;;;;0.40;0.40;;;;;;;17.52;100.00;96512.78;29395;241;63008;-63
2023/08/26 02:32:46;;;;;;;0.40;0.40;;;;;;;17.52;100.00;96507.28;29395;230;63005;-65
2023/08/26 02:33:18;;;;;;;0.40;0.40;;;;;;;17.54;100.00;96506.94;29395;218;63009;-63
2023/08/26 02:33:49;;;;;;;0.40;0.40;;;;;;;17.55;100.00;96508.53;29395;241;63005;-65
2023/08/26 02:34:20;;;;;;;0.30;0.30;;;;;;;17.54;100.00;96502.25;29394;198;64009;-65
2023/08/26 02:34:51;;;;;;;0.40;0.40;;;;;;;17.54;100.00;96504.19;29395;250;63008;-65
2023/08/26 02:35:24;;;;;;;0.40;0.40;;;;;;;17.55;100.00;96505.81;29395;309;63009;-65
2023/08/26 02:35:56;;;;;;;0.40;0.40;;;;;;;17.55;100.00;96500.31;29395;284;63005;-63
2023/08/26 02:36:27;;;;;;;0.40;0.40;;;;;;;17.55;100.00;96512.09;29395;267;63009;-64